Time;durP1;ratioP1;P1;durP2;ratioP2;P2;SDS_P1;SDS_P2;PMS_P1;PMS_P2;Temp;Humidity;BMP_temperature;BMP_pressure;BME280_temperature;BME280_humidity;BME280_pressure;Samples;Min_cycle;Max_cycle;Signal;HPM_P1;HPM_P2
2023/10/01 00:00:34;;;;;;;15.60;8.10;;;;;;;16.41;79.64;99144.00;109095;1256;58827;-23
2023/10/01 00:03:02;;;;;;;11.40;8.00;;;;;;;16.16;81.44;99144.27;109129;1256;60002;-23
2023/10/01 00:05:30;;;;;;;11.40;7.70;;;;;;;16.00;82.70;99145.58;109139;1256;73501;-23
2023/10/01 00:07:57;;;;;;;11.40;6.00;;;;;;;15.87;83.97;99146.67;109096;1255;74312;-22
2023/10/01 00:10:25;;;;;;;12.30;6.80;;;;;;;16.29;83.71;99147.82;109096;1255;72730;-23
2023/10/01 00:12:58;;;;;;;10.80;7.30;;;;;;;16.62;81.94;99147.00;109100;1257;58803;-23
2023/10/01 00:15:26;;;;;;;10.10;7.20;;;;;;;16.61;81.61;99144.84;109071;1256;60056;-23
2023/10/01 00:17:54;;;;;;;10.90;7.80;;;;;;;16.42;82.82;99147.02;109090;1256;72055;-23
2023/10/01 00:20:27;;;;;;;13.60;8.40;;;;;;;16.23;83.89;99141.80;109149;1255;72673;-23
2023/10/01 00:22:59;;;;;;;10.30;6.40;;;;;;;16.06;85.12;99143.96;109000;1255;72371;-23
2023/10/01 00:25:30;;;;;;;13.50;6.80;;;;;;;16.47;84.08;99141.29;109034;1256;58856;-23
2023/10/01 00:27:58;;;;;;;8.90;6.70;;;;;;;16.70;82.50;99138.17;109190;1257;59198;-23
2023/10/01 00:30:31;;;;;;;11.70;6.80;;;;;;;16.58;83.12;99137.64;109138;1256;71741;-23
2023/10/01 00:33:10;;;;;;;10.20;6.70;;;;;;;16.46;83.29;99138.70;109029;1257;74385;-23
2023/10/01 00:35:40;;;;;;;11.20;7.70;;;;;;;16.32;83.77;99143.68;109183;1261;71769;-23
2023/10/01 00:38:09;;;;;;;9.20;4.80;;;;;;;16.15;85.29;99144.52;109024;1256;61710;-23
2023/10/01 00:40:37;;;;;;;9.80;5.50;;;;;;;16.61;84.14;99144.58;109117;1255;58853;-23
2023/10/01 00:43:05;;;;;;;8.50;6.20;;;;;;;16.97;81.93;99140.45;109174;1257;73137;-23
2023/10/01 00:45:34;;;;;;;11.10;6.40;;;;;;;16.92;81.52;99136.04;109198;1255;73191;-23
2023/10/01 00:48:11;;;;;;;9.60;6.50;;;;;;;16.69;82.60;99136.67;109100;1255;71282;-23
2023/10/01 00:50:38;;;;;;;10.90;6.40;;;;;;;16.45;83.92;99139.69;109129;1256;60043;-23
2023/10/01 00:53:08;;;;;;;10.80;5.60;;;;;;;16.25;85.27;99137.44;109109;1257;58855;-23
2023/10/01 00:55:37;;;;;;;9.80;6.70;;;;;;;16.57;84.40;99140.89;109047;1254;73464;-23
2023/10/01 00:58:05;;;;;;;9.80;5.70;;;;;;;16.66;83.84;99141.23;108977;1255;73577;-23
2023/10/01 01:00:34;;;;;;;10.80;6.60;;;;;;;16.50;84.34;99141.13;109199;1254;70603;-23
2023/10/01 01:05:36;;;;;;;14.80;9.20;;;;;;;16.08;86.77;99142.44;108973;1256;59077;-23
2023/10/01 01:08:20;;;;;;;12.80;8.10;;;;;;;16.26;86.30;99150.47;109145;1255;71456;-23
2023/10/01 01:10:51;;;;;;;10.50;7.90;;;;;;;16.28;84.92;99155.83;108979;1256;74360;-23
2023/10/01 01:13:23;;;;;;;10.50;5.50;;;;;;;16.16;84.07;99155.36;109091;1255;72671;-23
2023/10/01 01:15:52;;;;;;;6.50;3.20;;;;;;;15.84;83.31;99156.46;109092;1257;58916;-23
2023/10/01 01:18:20;;;;;;;3.00;2.00;;;;;;;15.45;83.88;99156.29;109118;1256;58804;-23
2023/10/01 01:20:57;;;;;;;3.90;2.00;;;;;;;15.32;84.15;99152.48;109190;1256;73058;-23
2023/10/01 01:23:30;;;;;;;3.40;1.40;;;;;;;15.61;82.29;99156.84;109125;1256;74292;-23
2023/10/01 01:25:59;;;;;;;2.70;1.20;;;;;;;15.52;81.24;99162.64;109080;1262;71344;-23
2023/10/01 01:28:30;;;;;;;3.40;1.20;;;;;;;15.04;81.91;99156.81;109052;1260;60153;-23
2023/10/01 01:31:03;;;;;;;1.80;1.00;;;;;;;14.84;82.13;99161.09;109150;1257;59155;-23
2023/10/01 01:33:32;;;;;;;;;;;;;;;14.57;82.40;99169.38;109070;1256;71901;-23
2023/10/01 01:36:03;;;;;;;4.50;1.20;;;;;;;14.35;83.03;99168.80;109155;1256;73408;-23
2023/10/01 01:38:32;;;;;;;4.40;1.30;;;;;;;14.42;82.69;99173.63;109011;1265;72679;-23
2023/10/01 01:41:00;;;;;;;2.20;0.90;;;;;;;14.54;81.94;99168.81;109084;1257;58922;-23
2023/10/01 01:43:31;;;;;;;1.60;0.90;;;;;;;14.44;82.00;99163.94;109142;1256;58717;-23
2023/10/01 01:46:01;;;;;;;4.00;1.30;;;;;;;14.32;82.72;99170.88;109133;1256;73478;-23
2023/10/01 01:51:00;;;;;;;2.20;1.10;;;;;;;14.14;84.03;99170.70;109116;1256;72646;-23
2023/10/01 01:53:35;;;;;;;7.00;1.30;;;;;;;14.52;82.09;99173.17;109037;1256;58813;-23
2023/10/01 01:56:08;;;;;;;3.10;1.20;;;;;;;14.66;81.00;99178.42;109098;1256;58712;-23
2023/10/01 01:58:37;;;;;;;3.30;1.50;;;;;;;14.58;80.99;99183.81;109044;1256;73011;-23
2023/10/01 02:01:08;;;;;;;8.40;1.40;;;;;;;14.51;81.30;99187.34;108971;1257;73153;-23
2023/10/01 02:03:44;;;;;;;2.90;1.60;;;;;;;14.21;82.58;99190.95;109024;1257;72760;-23
2023/10/01 02:06:13;;;;;;;3.60;1.10;;;;;;;14.17;83.02;99194.31;108989;1257;60414;-23
2023/10/01 02:08:48;;;;;;;2.90;1.40;;;;;;;14.51;81.48;99188.66;108980;1256;60070;-23
2023/10/01 02:11:16;;;;;;;3.80;1.50;;;;;;;14.77;79.88;99195.25;109052;1256;73044;-23
2023/10/01 02:13:46;;;;;;;4.70;1.70;;;;;;;14.59;79.88;99196.95;109141;1256;74758;-23
2023/10/01 02:17:03;;;;;;;4.50;1.60;;;;;;;14.37;81.02;99200.61;109079;1257;72681;-23
2023/10/01 02:19:21;;;;;;;6.30;1.60;;;;;;;14.20;81.32;99205.16;108978;1259;60127;-23
2023/10/01 02:22:00;;;;;;;7.50;1.30;;;;;;;14.12;81.88;99209.40;109054;1257;60094;-23
2023/10/01 02:24:54;;;;;;;3.10;1.20;;;;;;;14.48;80.31;99203.27;109096;1256;73082;-23
2023/10/01 02:27:29;;;;;;;4.10;1.50;;;;;;;14.63;79.10;99210.23;109187;1257;73037;-23
2023/10/01 02:30:14;;;;;;;2.70;1.40;;;;;;;14.48;79.24;99215.15;108992;1257;72702;-23
2023/10/01 02:33:15;;;;;;;5.00;1.60;;;;;;;14.32;80.02;99221.67;109123;1257;58857;-23
2023/10/01 02:35:41;;;;;;;4.40;1.40;;;;;;;14.25;80.32;99217.11;109055;1256;60025;-23
2023/10/01 02:38:56;;;;;;;5.30;1.80;;;;;;;14.15;80.93;99214.14;109047;1257;73881;-23
2023/10/01 02:40:58;;;;;;;3.10;1.10;;;;;;;14.68;78.98;99214.48;108987;1255;74304;-23
2023/10/01 02:43:26;;;;;;;5.10;2.00;;;;;;;14.93;77.17;99214.56;109152;1257;72767;-23
2023/10/01 02:45:54;;;;;;;7.80;2.00;;;;;;;14.79;77.01;99215.70;109045;1257;58832;-23
2023/10/01 02:48:22;;;;;;;7.50;1.90;;;;;;;14.66;77.44;99217.31;109179;1256;58755;-23
2023/10/01 02:50:54;;;;;;;4.50;1.70;;;;;;;14.42;78.18;99215.71;109107;1255;73874;-23
2023/10/01 02:53:23;;;;;;;4.50;1.90;;;;;;;14.22;79.11;99220.50;109136;1256;73401;-23
2023/10/01 02:55:56;;;;;;;5.40;2.10;;;;;;;14.13;79.66;99225.73;108956;1256;72665;-23
2023/10/01 02:58:27;;;;;;;6.90;1.90;;;;;;;14.02;80.11;99231.11;109035;1260;61690;-23
2023/10/01 03:00:56;;;;;;;4.70;1.40;;;;;;;14.45;78.38;99229.55;109071;1255;58721;-23
2023/10/01 03:03:38;;;;;;;5.20;1.80;;;;;;;14.72;76.55;99225.63;109016;1257;73848;-23
2023/10/01 03:06:09;;;;;;;4.80;2.10;;;;;;;14.71;76.10;99232.14;108911;1257;72223;-23
2023/10/01 03:09:00;;;;;;;2.90;1.60;;;;;;;14.49;76.81;99234.43;108996;1257;71794;-23
2023/10/01 03:11:40;;;;;;;6.00;2.00;;;;;;;14.39;77.08;99234.85;109020;1257;60046;-23
2023/10/01 03:14:18;;;;;;;7.30;1.40;;;;;;;14.25;77.69;99233.48;108990;1257;59997;-23
2023/10/01 03:16:53;;;;;;;5.20;1.50;;;;;;;14.05;78.31;99232.70;108990;1259;72699;-23
2023/10/01 03:19:25;;;;;;;4.20;1.70;;;;;;;13.95;78.88;99239.99;108931;1257;74003;-23
2023/10/01 03:24:41;;;;;;;6.50;1.80;;;;;;;14.68;75.45;99235.80;108955;1259;58838;-23
2023/10/01 03:30:22;;;;;;;8.20;2.10;;;;;;;14.27;76.77;99245.91;108815;1263;73844;-23
2023/10/01 03:32:50;;;;;;;6.40;2.30;;;;;;;14.18;77.37;99244.64;108969;1257;73274;-23
2023/10/01 03:35:20;;;;;;;5.30;1.90;;;;;;;14.11;77.63;99243.92;108969;1257;71447;-23
2023/10/01 03:38:09;;;;;;;3.40;1.50;;;;;;;13.92;78.32;99241.61;108985;1260;59279;-23
2023/10/01 03:40:57;;;;;;;4.00;1.70;;;;;;;13.93;78.92;99245.19;108962;1264;58819;-23
2023/10/01 03:43:32;;;;;;;6.70;1.90;;;;;;;14.43;76.83;99245.27;108992;1258;73949;-23
2023/10/01 03:46:13;;;;;;;5.30;1.80;;;;;;;14.54;75.89;99246.02;108979;1257;74308;-23
2023/10/01 03:48:58;;;;;;;7.70;1.80;;;;;;;14.38;76.49;99246.25;108942;1257;71416;-23
2023/10/01 03:54:14;;;;;;;5.80;1.60;;;;;;;13.92;78.73;99252.77;109015;1257;58741;-23
2023/10/01 03:56:47;;;;;;;6.90;2.00;;;;;;;13.82;79.59;99253.38;109029;1257;73031;-23
2023/10/01 03:59:16;;;;;;;7.20;1.70;;;;;;;14.25;78.20;99252.56;108958;1257;73681;-23
2023/10/01 04:01:59;;;;;;;4.20;1.80;;;;;;;14.53;76.75;99256.44;109014;1257;72700;-23
2023/10/01 04:07:18;;;;;;;4.00;1.70;;;;;;;14.43;76.35;99253.84;108873;1259;60034;-23
2023/10/01 04:09:50;;;;;;;6.40;2.00;;;;;;;14.19;77.32;99254.52;108864;1259;73827;-23
2023/10/01 04:12:19;;;;;;;6.70;2.00;;;;;;;14.04;78.09;99256.95;108867;1259;74309;-23
2023/10/01 04:14:52;;;;;;;4.50;1.60;;;;;;;13.90;78.75;99263.96;108835;1259;72779;-23
2023/10/01 04:17:20;;;;;;;6.40;1.40;;;;;;;14.36;77.45;99265.47;108862;1261;59403;-23
2023/10/01 04:19:49;;;;;;;5.30;1.50;;;;;;;14.78;75.35;99262.51;108895;1260;60091;-23
2023/10/01 04:22:18;;;;;;;4.80;2.00;;;;;;;14.74;75.04;99263.35;108924;1260;72208;-23
2023/10/01 04:25:00;;;;;;;6.30;1.90;;;;;;;14.54;75.68;99270.11;108938;1260;73207;-23
2023/10/01 04:27:30;;;;;;;4.90;1.70;;;;;;;14.28;76.89;99270.99;108934;1263;72682;-23
2023/10/01 04:29:58;;;;;;;6.00;2.00;;;;;;;14.13;77.51;99274.21;108861;1259;60331;-23
2023/10/01 04:32:27;;;;;;;6.50;2.00;;;;;;;13.96;78.48;99274.98;108852;1259;58873;-23
2023/10/01 04:34:56;;;;;;;6.20;2.10;;;;;;;13.86;79.11;99278.14;108877;1258;73081;-23
2023/10/01 04:37:40;;;;;;;4.40;1.50;;;;;;;14.20;78.27;99284.02;108911;1259;73078;-23
2023/10/01 04:40:31;;;;;;;4.00;1.80;;;;;;;14.51;76.63;99282.33;108921;1260;71398;-23
2023/10/01 04:42:56;;;;;;;7.20;2.60;;;;;;;14.31;76.86;99285.32;108925;1259;60088;-23
2023/10/01 04:45:24;;;;;;;6.90;2.20;;;;;;;14.23;77.23;99289.56;108856;1264;59176;-23
2023/10/01 04:47:55;;;;;;;3.90;1.80;;;;;;;14.05;77.99;99289.64;108877;1260;73816;-23
2023/10/01 04:50:29;;;;;;;5.20;1.50;;;;;;;13.78;79.09;99289.25;108876;1260;74403;-24
2023/10/01 04:53:00;;;;;;;7.40;1.50;;;;;;;13.65;79.44;99290.15;108932;1260;72447;-23
2023/10/01 04:55:30;;;;;;;7.80;2.00;;;;;;;13.77;79.51;99293.77;108958;1259;61749;-23
2023/10/01 04:57:58;;;;;;;6.60;1.80;;;;;;;14.17;77.56;99296.42;108941;1259;60038;-23
2023/10/01 05:00:25;;;;;;;6.20;1.80;;;;;;;14.31;76.37;99296.67;108957;1259;73848;-23
2023/10/01 05:02:53;;;;;;;6.20;2.00;;;;;;;14.19;76.54;99298.17;108932;1260;73057;-24
2023/10/01 05:05:27;;;;;;;5.90;2.30;;;;;;;14.09;76.81;99302.05;108953;1260;72688;-23
2023/10/01 05:07:56;;;;;;;6.40;1.80;;;;;;;13.86;77.74;99301.73;108942;1264;58789;-23
2023/10/01 05:10:27;;;;;;;6.40;2.20;;;;;;;13.77;78.18;99300.38;108868;1261;58833;-23
2023/10/01 05:12:58;;;;;;;5.90;2.00;;;;;;;13.70;78.92;99302.24;108982;1260;72097;-23
2023/10/01 05:15:27;;;;;;;5.00;1.80;;;;;;;14.11;77.40;99303.55;108993;1260;72509;-23
2023/10/01 05:17:55;;;;;;;6.50;1.60;;;;;;;14.54;75.55;99304.86;108925;1260;71482;-23
2023/10/01 05:20:25;;;;;;;3.80;2.00;;;;;;;14.43;75.40;99301.98;108972;1261;58817;-23
2023/10/01 05:22:54;;;;;;;7.10;2.00;;;;;;;14.23;76.18;99300.04;108963;1260;58807;-23
2023/10/01 05:25:26;;;;;;;7.60;2.00;;;;;;;14.03;76.82;99303.65;108892;1263;73813;-23
2023/10/01 05:27:55;;;;;;;9.60;2.10;;;;;;;13.72;78.10;99306.23;108862;1259;74464;-23
2023/10/01 05:30:38;;;;;;;7.00;2.10;;;;;;;13.61;78.77;99310.15;108927;1261;71428;-23
2023/10/01 05:33:06;;;;;;;3.20;1.20;;;;;;;13.39;80.20;99310.73;108847;1259;60488;-23
2023/10/01 05:35:43;;;;;;;6.80;1.70;;;;;;;13.91;79.06;99312.38;108962;1261;60480;-23
2023/10/01 05:38:14;;;;;;;9.80;2.20;;;;;;;14.14;77.67;99315.75;108884;1260;72527;-23
2023/10/01 05:40:44;;;;;;;4.80;1.90;;;;;;;14.11;77.74;99320.15;108975;1260;74307;-23
2023/10/01 05:43:15;;;;;;;5.80;2.20;;;;;;;13.95;78.23;99327.39;108894;1264;72607;-23
2023/10/01 05:45:50;;;;;;;4.40;2.00;;;;;;;13.74;79.26;99328.52;108910;1260;60283;-23
2023/10/01 05:48:19;;;;;;;8.00;2.50;;;;;;;13.69;79.55;99329.77;108894;1260;60061;-23
2023/10/01 05:50:49;;;;;;;7.20;2.00;;;;;;;13.57;80.15;99328.19;108793;1261;72584;-23
2023/10/01 05:53:18;;;;;;;7.90;2.10;;;;;;;13.94;78.22;99327.67;108930;1259;73327;-23
2023/10/01 05:55:46;;;;;;;7.60;2.20;;;;;;;14.30;76.17;99335.70;108956;1259;71202;-23
2023/10/01 05:58:15;;;;;;;4.30;1.50;;;;;;;14.30;75.76;99336.39;108828;1260;58948;-23
2023/10/01 06:00:56;;;;;;;7.80;2.00;;;;;;;14.26;75.57;99341.47;108920;1260;60082;-23
2023/10/01 06:03:30;;;;;;;7.80;2.40;;;;;;;14.01;76.49;99349.18;108898;1260;72865;-23
2023/10/01 06:06:13;;;;;;;10.40;2.10;;;;;;;13.86;76.70;99350.52;108837;1260;73218;-23
2023/10/01 06:08:50;;;;;;;7.00;2.00;;;;;;;13.74;76.81;99352.64;108715;1261;71362;-23
2023/10/01 06:11:38;;;;;;;7.70;2.20;;;;;;;13.68;77.35;99353.87;108854;1260;60476;-23
2023/10/01 06:15:03;;;;;;;6.80;1.80;;;;;;;14.03;76.08;99350.41;108780;1260;60007;-24
2023/10/01 06:17:05;;;;;;;6.00;1.60;;;;;;;14.28;74.79;99352.72;108702;1260;73934;-23
2023/10/01 06:19:38;;;;;;;5.00;2.00;;;;;;;14.30;74.65;99357.04;108801;1260;74446;-23
2023/10/01 06:22:22;;;;;;;9.60;2.10;;;;;;;14.08;75.08;99357.44;108772;1260;72790;-23
2023/10/01 06:24:54;;;;;;;7.80;2.50;;;;;;;13.89;75.95;99359.98;108753;1260;60095;-23
2023/10/01 06:27:26;;;;;;;8.90;2.40;;;;;;;13.80;76.69;99358.89;108827;1260;59996;-23
2023/10/01 06:30:00;;;;;;;8.40;2.20;;;;;;;13.77;77.22;99367.19;108807;1260;73014;-23
2023/10/01 06:32:29;;;;;;;6.80;1.80;;;;;;;13.74;77.40;99376.42;108778;1260;74311;-23
2023/10/01 06:35:02;;;;;;;7.90;2.10;;;;;;;14.13;75.73;99375.86;108794;1261;72685;-23
2023/10/01 06:37:50;;;;;;;9.60;2.60;;;;;;;14.41;74.28;99378.02;108785;1264;60084;-23
2023/10/01 06:40:32;;;;;;;7.10;1.90;;;;;;;14.35;73.98;99380.13;108840;1260;58948;-23
2023/10/01 06:43:06;;;;;;;8.50;2.40;;;;;;;14.09;74.60;99378.30;108870;1260;73988;-23
2023/10/01 06:45:41;;;;;;;7.70;2.10;;;;;;;13.91;75.47;99382.89;108792;1260;74352;-23
2023/10/01 06:48:14;;;;;;;9.60;2.20;;;;;;;13.92;75.46;99382.12;108836;1260;72261;-23
2023/10/01 06:50:49;;;;;;;;;;;;;;;13.89;75.86;99387.61;108761;1260;58830;-23
2023/10/01 06:53:43;;;;;;;9.70;2.10;;;;;;;13.87;75.72;99385.84;108896;1259;58693;-24
2023/10/01 06:56:09;;;;;;;4.50;1.60;;;;;;;14.02;75.73;99387.35;108847;1263;72621;-23
2023/10/01 06:58:40;;;;;;;8.00;1.90;;;;;;;14.56;73.67;99390.61;108930;1259;73064;-23
2023/10/01 07:01:34;;;;;;;9.60;1.80;;;;;;;15.03;71.62;99392.05;108933;1259;72672;-23
2023/10/01 07:11:37;;;;;;;7.00;1.80;;;;;;;14.85;71.21;99390.30;102679;1293;600256;-22
2023/10/01 07:14:06;;;;;;;6.80;2.10;;;;;;;14.90;71.38;99388.42;104910;1267;61251;-21
2023/10/01 07:16:39;;;;;;;9.80;3.10;;;;;;;14.89;71.10;99387.11;104821;1266;61079;-22
2023/10/01 07:19:11;;;;;;;5.80;2.00;;;;;;;14.57;71.79;99386.16;104828;1267;70478;-22
2023/10/01 07:21:45;;;;;;;6.80;2.20;;;;;;;14.45;72.53;99384.99;104783;1267;74345;-22
2023/10/01 07:24:13;;;;;;;10.00;2.10;;;;;;;14.46;72.66;99393.09;102320;1270;3325766;-23
2023/10/01 07:34:26;;;;;;;7.20;1.70;;;;;;;16.07;65.32;99390.31;102733;1290;600156;-22
2023/10/01 07:36:54;;;;;;;7.90;1.70;;;;;;;16.19;64.55;99391.48;105056;1265;61436;-21
2023/10/01 07:39:22;;;;;;;7.90;1.30;;;;;;;15.99;63.98;99389.90;105030;1263;61086;-22
2023/10/01 07:49:48;;;;;;;7.70;1.80;;;;;;;16.21;62.68;99380.27;102613;1294;600117;-23
2023/10/01 07:52:19;;;;;;;6.30;1.60;;;;;;;16.23;62.76;99376.34;108651;1267;58837;-23
2023/10/01 07:54:48;;;;;;;5.90;1.50;;;;;;;16.11;61.49;99382.46;108618;1266;58886;-23
2023/10/01 07:57:28;;;;;;;5.40;1.70;;;;;;;16.24;61.15;99381.29;108606;1266;71025;-23
2023/10/01 08:00:00;;;;;;;6.00;1.60;;;;;;;16.20;61.15;99382.95;108545;1266;73217;-23
2023/10/01 08:03:27;;;;;;;6.30;1.90;;;;;;;16.29;60.98;99379.80;106381;1264;3043645;-23
2023/10/01 08:05:20;;;;;;;5.70;1.70;;;;;;;16.38;60.77;99377.66;108770;1263;59044;-23
2023/10/01 08:07:48;;;;;;;4.60;1.50;;;;;;;16.28;61.60;99376.86;108615;1264;58843;-23
2023/10/01 08:10:18;;;;;;;6.30;1.50;;;;;;;16.60;60.42;99373.47;108773;1264;71243;-23
2023/10/01 08:13:05;;;;;;;3.90;1.60;;;;;;;16.48;60.57;99375.09;108785;1263;73159;-23
2023/10/01 08:15:45;;;;;;;9.30;1.80;;;;;;;16.23;60.15;99372.27;108699;1264;72770;-23
2023/10/01 08:20:59;;;;;;;7.10;1.90;;;;;;;16.37;58.71;99378.13;108714;1264;60087;-23
2023/10/01 08:23:31;;;;;;;5.50;1.60;;;;;;;16.38;59.44;99379.55;108705;1264;71868;-23
2023/10/01 08:26:03;;;;;;;6.40;1.70;;;;;;;16.41;59.53;99379.14;108768;1264;74332;-23
2023/10/01 08:28:43;;;;;;;6.30;2.00;;;;;;;16.50;59.51;99377.86;108766;1264;72742;-23
2023/10/01 08:31:43;;;;;;;10.00;2.20;;;;;;;16.50;59.05;99382.73;108752;1264;58835;-23
2023/10/01 08:34:22;;;;;;;6.90;1.80;;;;;;;16.51;58.66;99387.02;108821;1264;60056;-23
2023/10/01 08:36:48;;;;;;;7.40;2.20;;;;;;;16.66;56.97;99385.23;108830;1266;72260;-23
2023/10/01 08:39:34;;;;;;;8.30;1.80;;;;;;;16.76;56.24;99385.80;108720;1264;74425;-23
2023/10/01 08:42:09;;;;;;;9.90;2.10;;;;;;;17.06;56.24;99380.94;108747;1264;71121;-23
2023/10/01 08:44:47;;;;;;;6.80;1.60;;;;;;;17.32;55.34;99375.29;108715;1263;60065;-23
2023/10/01 08:47:28;;;;;;;6.70;1.80;;;;;;;17.39;53.80;99370.14;108639;1263;60020;-23
2023/10/01 08:49:56;;;;;;;4.50;1.70;;;;;;;17.48;53.15;99368.73;108740;1264;73508;-23
2023/10/01 08:52:30;;;;;;;4.50;1.60;;;;;;;17.43;52.37;99365.27;108726;1263;74354;-23
2023/10/01 08:54:58;;;;;;;5.60;1.60;;;;;;;17.38;51.98;99362.39;108695;1266;71084;-23
2023/10/01 08:57:52;;;;;;;7.60;2.10;;;;;;;17.39;50.87;99357.67;108676;1263;61290;-23
2023/10/01 09:00:20;;;;;;;4.10;1.30;;;;;;;17.53;50.31;99351.34;108770;1264;58912;-23
2023/10/01 09:02:55;;;;;;;5.50;1.50;;;;;;;17.73;49.75;99356.08;108759;1265;71890;-23
2023/10/01 09:05:23;;;;;;;7.40;1.80;;;;;;;17.85;49.77;99360.64;108539;1266;74334;-23
2023/10/01 09:08:15;;;;;;;9.00;2.40;;;;;;;18.02;49.22;99355.70;108691;1267;71467;-23
2023/10/01 09:10:50;;;;;;;7.10;1.90;;;;;;;17.86;48.15;99354.77;108576;1266;61998;-23
2023/10/01 09:13:21;;;;;;;6.80;1.90;;;;;;;17.78;47.64;99358.56;108710;1264;60022;-23
2023/10/01 09:15:55;;;;;;;4.40;1.60;;;;;;;17.77;48.29;99361.52;108683;1265;73102;-23
2023/10/01 09:18:23;;;;;;;4.70;1.70;;;;;;;18.40;47.69;99353.38;108643;1264;73221;-23
2023/10/01 09:21:20;;;;;;;4.80;1.60;;;;;;;18.55;47.11;99353.66;108703;1264;71376;-23
2023/10/01 09:23:57;;;;;;;7.20;1.60;;;;;;;18.42;45.76;99358.77;108704;1264;59090;-23
2023/10/01 09:26:39;;;;;;;5.90;1.70;;;;;;;17.91;45.91;99361.40;108741;1264;60150;-23
2023/10/01 09:29:20;;;;;;;6.40;2.10;;;;;;;17.86;46.87;99359.59;108758;1265;72087;-23
2023/10/01 09:31:56;;;;;;;6.50;2.10;;;;;;;18.23;46.52;99358.36;108695;1264;74311;-23
2023/10/01 09:34:31;;;;;;;5.30;1.80;;;;;;;18.54;45.85;99361.13;108685;1264;71406;-23
2023/10/01 09:37:12;;;;;;;5.40;1.90;;;;;;;18.83;45.25;99352.55;108561;1267;58865;-23
2023/10/01 09:39:41;;;;;;;11.10;2.30;;;;;;;18.53;45.13;99357.83;108507;1266;60030;-23
2023/10/01 09:42:28;;;;;;;10.80;2.20;;;;;;;18.19;45.29;99362.51;108684;1264;73942;-23
2023/10/01 09:45:09;;;;;;;5.30;2.00;;;;;;;17.83;45.98;99351.94;108641;1266;73636;-23
2023/10/01 09:47:37;;;;;;;5.40;1.60;;;;;;;17.84;45.59;99348.75;108731;1264;72675;-23
2023/10/01 09:50:06;;;;;;;6.30;2.20;;;;;;;18.12;45.44;99347.08;108666;1264;60283;-23
2023/10/01 09:52:48;;;;;;;6.70;1.90;;;;;;;18.17;45.43;99340.41;108733;1264;58793;-23
2023/10/01 09:55:26;;;;;;;3.60;1.60;;;;;;;17.88;45.72;99347.50;108673;1264;73115;-23
2023/10/01 09:57:54;;;;;;;8.20;1.90;;;;;;;17.55;46.31;99346.96;108607;1264;74350;-23
2023/10/01 10:00:39;;;;;;;6.00;1.90;;;;;;;17.43;46.58;99343.45;108780;1264;71403;-23
2023/10/01 10:03:11;;;;;;;5.10;1.90;;;;;;;17.24;47.36;99341.35;108677;1266;58865;-23
2023/10/01 10:05:40;;;;;;;6.90;1.90;;;;;;;17.22;47.21;99344.80;108634;1266;60044;-23
2023/10/01 10:08:14;;;;;;;5.20;1.60;;;;;;;17.28;47.30;99338.01;108625;1265;71789;-23
2023/10/01 10:10:48;;;;;;;4.80;1.40;;;;;;;17.36;48.14;99335.90;108555;1264;72605;-23
2023/10/01 10:13:45;;;;;;;6.00;1.80;;;;;;;17.84;46.98;99338.97;108291;1265;72720;-23
2023/10/01 10:16:32;;;;;;;4.50;1.90;;;;;;;18.25;45.58;99339.34;108520;1265;59225;-23
2023/10/01 10:19:15;;;;;;;5.30;1.60;;;;;;;18.73;44.25;99343.06;108451;1264;60025;-23
2023/10/01 10:24:32;;;;;;;9.50;2.00;;;;;;;19.11;43.62;99345.35;108764;1264;74398;-23
2023/10/01 10:27:07;;;;;;;8.10;2.30;;;;;;;18.68;43.98;99341.98;108602;1264;72533;-23
2023/10/01 10:29:47;;;;;;;7.30;2.20;;;;;;;18.23;44.95;99345.98;108683;1265;59162;-23
2023/10/01 10:32:14;;;;;;;5.00;1.90;;;;;;;17.87;46.03;99346.22;108601;1271;60057;-23
2023/10/01 10:35:03;;;;;;;5.30;2.00;;;;;;;17.57;46.96;99342.88;108768;1265;73053;-23
2023/10/01 10:37:37;;;;;;;4.90;1.80;;;;;;;17.55;46.76;99341.13;108707;1265;74516;-23
2023/10/01 10:43:04;;;;;;;7.60;2.20;;;;;;;17.73;46.43;99334.00;108617;1265;59267;-23
2023/10/01 10:45:45;;;;;;;7.90;1.80;;;;;;;17.66;46.63;99333.80;108103;1271;60063;-23
2023/10/01 10:48:21;;;;;;;7.10;1.80;;;;;;;17.38;47.33;99332.20;107883;1271;71836;-23
2023/10/01 10:50:50;;;;;;;5.50;1.80;;;;;;;17.34;47.51;99335.65;107944;1271;73097;-23
2023/10/01 10:53:37;;;;;;;9.80;2.50;;;;;;;17.43;46.50;99338.79;107988;1271;72720;-23
2023/10/01 10:56:09;;;;;;;8.80;2.00;;;;;;;17.65;46.65;99332.94;108133;1271;60115;-23
2023/10/01 10:58:46;;;;;;;5.30;1.80;;;;;;;18.37;44.95;99324.98;108608;1270;58919;-23
2023/10/01 11:01:20;;;;;;;6.20;2.20;;;;;;;18.49;43.92;99318.23;108715;1263;72091;-23
2023/10/01 11:03:58;;;;;;;6.80;2.30;;;;;;;18.55;43.68;99316.89;108747;1263;73053;-23
2023/10/01 11:06:39;;;;;;;4.60;2.20;;;;;;;18.74;42.97;99313.91;108584;1263;71465;-23
2023/10/01 11:09:24;;;;;;;7.60;2.20;;;;;;;18.82;43.24;99311.77;108559;1264;60103;-23
2023/10/01 11:11:52;;;;;;;7.70;2.10;;;;;;;18.66;42.82;99307.41;108694;1263;59204;-23
2023/10/01 11:14:20;;;;;;;7.30;2.20;;;;;;;18.52;43.07;99313.90;108696;1263;71848;-23
2023/10/01 11:16:48;;;;;;;7.40;2.30;;;;;;;18.72;42.40;99307.79;108685;1264;74322;-23
2023/10/01 11:19:25;;;;;;;7.60;2.30;;;;;;;19.06;41.46;99305.82;108641;1264;72517;-23
2023/10/01 11:21:59;;;;;;;5.10;1.90;;;;;;;19.15;41.35;99301.62;108631;1265;58819;-23
2023/10/01 11:24:39;;;;;;;5.00;1.50;;;;;;;19.33;40.62;99301.90;109089;1256;58788;-23
2023/10/01 11:27:43;;;;;;;6.60;2.00;;;;;;;19.02;40.27;99296.80;109032;1257;73141;-23
2023/10/01 11:30:12;;;;;;;2.50;1.60;;;;;;;18.73;41.83;99291.75;109099;1256;74338;-23
2023/10/01 11:36:07;;;;;;;7.60;1.90;;;;;;;18.05;43.46;99294.73;109126;1256;60035;-23
2023/10/01 11:38:38;;;;;;;5.20;1.70;;;;;;;17.73;42.86;99292.36;109049;1256;58768;-23
2023/10/01 11:41:07;;;;;;;8.80;2.40;;;;;;;17.72;43.56;99299.89;109084;1256;73228;-23
2023/10/01 11:43:58;;;;;;;11.50;2.30;;;;;;;17.79;43.59;99301.77;109046;1256;74447;-23
2023/10/01 11:46:34;;;;;;;5.50;2.10;;;;;;;17.85;43.93;99300.30;109073;1256;72767;-23
2023/10/01 11:49:06;;;;;;;6.70;2.10;;;;;;;17.74;44.26;99298.41;109076;1262;58757;-23
2023/10/01 11:51:54;;;;;;;6.60;2.00;;;;;;;17.63;44.74;99292.79;109066;1256;60001;-23
2023/10/01 11:54:25;;;;;;;3.90;1.90;;;;;;;17.58;45.22;99291.71;109140;1256;73037;-23
2023/10/01 11:57:05;;;;;;;4.60;2.00;;;;;;;17.67;45.20;99294.20;108995;1260;73518;-23
2023/10/01 11:59:42;;;;;;;5.00;2.30;;;;;;;17.53;45.66;99294.73;109120;1258;71401;-23
2023/10/01 12:02:20;;;;;;;5.60;2.90;;;;;;;17.42;45.37;99296.68;109081;1256;59145;-23
2023/10/01 12:04:59;;;;;;;5.70;2.10;;;;;;;17.37;45.85;99297.19;109036;1259;59937;-23
2023/10/01 12:07:42;;;;;;;5.90;2.20;;;;;;;17.48;46.05;99296.99;109130;1257;73068;-23
2023/10/01 12:10:31;;;;;;;4.90;1.70;;;;;;;17.66;45.89;99298.31;109067;1257;74343;-23
2023/10/01 12:12:59;;;;;;;8.30;2.50;;;;;;;17.72;45.96;99292.45;109026;1263;72696;-23
2023/10/01 12:15:34;;;;;;;7.70;2.50;;;;;;;17.91;45.38;99289.14;109085;1257;60082;-23
2023/10/01 12:18:08;;;;;;;5.60;2.10;;;;;;;18.17;44.38;99287.88;109026;1257;60025;-23
2023/10/01 12:20:39;;;;;;;8.60;2.40;;;;;;;18.14;43.36;99284.27;109034;1258;73798;-23
2023/10/01 12:23:11;;;;;;;8.60;2.40;;;;;;;17.93;43.72;99281.58;109045;1260;74332;-23
2023/10/01 12:25:47;;;;;;;5.00;2.30;;;;;;;17.83;44.47;99290.09;108975;1258;72632;-23
2023/10/01 12:28:28;;;;;;;6.40;2.30;;;;;;;17.79;44.89;99290.36;108996;1257;60139;-23
2023/10/01 12:31:08;;;;;;;9.30;2.50;;;;;;;17.72;43.99;99297.16;109012;1257;58818;-23
2023/10/01 12:33:40;;;;;;;8.40;2.50;;;;;;;17.94;43.19;99296.46;109045;1257;73971;-23
2023/10/01 12:44:33;;;;;;;7.70;3.10;;;;;;;18.29;42.52;99276.66;109100;1257;59984;-23
2023/10/01 12:47:02;;;;;;;7.30;2.80;;;;;;;18.69;41.29;99270.67;109024;1257;73921;-24
2023/10/01 12:49:33;;;;;;;10.30;2.20;;;;;;;18.66;40.72;99264.33;109060;1257;74784;-23
2023/10/01 12:52:02;;;;;;;4.70;2.20;;;;;;;18.78;39.98;99263.77;109058;1261;71404;-23
2023/10/01 12:54:29;;;;;;;6.50;2.00;;;;;;;18.74;39.42;99264.48;109102;1257;60015;-23
2023/10/01 12:59:38;;;;;;;6.30;2.20;;;;;;;18.44;40.70;99254.08;109093;1263;73900;-23